createdAt,value
2018-08-23T00:01:24.343Z,65.70
2018-08-23T00:03:54.219Z,65.70
2018-08-23T00:06:23.824Z,66.30
2018-08-23T00:08:53.712Z,66.10
2018-08-23T00:11:26.183Z,65.90
2018-08-23T00:13:55.893Z,65.40
2018-08-23T00:16:32.424Z,65.20
2018-08-23T00:19:03.100Z,65.90
2018-08-23T00:21:32.763Z,65.90
2018-08-23T00:24:11.278Z,65.60
2018-08-23T00:26:48.652Z,65.70
2018-08-23T00:29:33.357Z,65.20
2018-08-23T00:32:05.157Z,65.10
2018-08-23T00:34:36.186Z,65.50
2018-08-23T00:37:06.295Z,66.00
2018-08-23T00:39:35.979Z,66.00
2018-08-23T00:42:06.971Z,65.70
2018-08-23T00:44:52.255Z,65.90
2018-08-23T00:47:23.671Z,66.80
2018-08-23T00:49:53.166Z,66.10
2018-08-23T00:52:32.327Z,66.00
2018-08-23T00:55:11.524Z,66.60
2018-08-23T00:57:41.183Z,67.10
2018-08-23T01:00:12.596Z,66.90
2018-08-23T01:02:42.343Z,67.00
2018-08-23T01:05:12.041Z,66.80
2018-08-23T01:07:41.800Z,66.90
2018-08-23T01:10:11.461Z,66.80
2018-08-23T01:12:51.298Z,66.90
2018-08-23T01:15:20.916Z,67.00
2018-08-23T01:17:55.037Z,66.70
2018-08-23T01:20:24.672Z,67.00
2018-08-23T01:23:00.827Z,67.00
2018-08-23T01:25:34.026Z,66.70
2018-08-23T01:28:03.640Z,66.90
2018-08-23T01:30:33.254Z,66.50
2018-08-23T01:33:02.922Z,66.80
2018-08-23T01:35:32.487Z,66.60
2018-08-23T01:38:02.151Z,67.20
2018-08-23T01:40:31.823Z,66.30
2018-08-23T01:43:01.439Z,66.40
2018-08-23T01:45:31.056Z,66.60
2018-08-23T01:48:01.261Z,66.50
2018-08-23T01:50:30.845Z,66.40
2018-08-23T01:53:00.445Z,66.60
2018-08-23T01:55:30.007Z,66.60
2018-08-23T01:57:59.589Z,66.30
2018-08-23T02:00:31.493Z,66.60
2018-08-23T02:03:01.896Z,66.60
2018-08-23T02:05:31.631Z,66.40
2018-08-23T02:08:01.326Z,66.50
2018-08-23T02:10:31.102Z,66.40
2018-08-23T02:13:00.659Z,66.50
2018-08-23T02:15:42.146Z,66.80
2018-08-23T02:18:11.753Z,67.30
2018-08-23T02:20:41.362Z,66.90
2018-08-23T02:23:11.000Z,67.00
2018-08-23T02:25:40.682Z,67.50
2018-08-23T02:28:11.789Z,67.90
2018-08-23T02:30:53.795Z,67.60
2018-08-23T02:33:23.449Z,67.40
2018-08-23T02:36:22.812Z,67.30
2018-08-23T02:39:01.231Z,67.40
2018-08-23T02:41:31.133Z,67.40
2018-08-23T02:44:00.680Z,67.40
2018-08-23T02:46:32.133Z,67.60
2018-08-23T02:49:01.703Z,67.70
2018-08-23T02:51:43.461Z,67.70
2018-08-23T02:54:14.243Z,67.90
2018-08-23T02:56:49.047Z,68.10
2018-08-23T02:59:18.726Z,67.90
2018-08-23T03:01:49.431Z,68.30
2018-08-23T03:04:20.223Z,68.80
2018-08-23T03:06:57.267Z,68.40
2018-08-23T03:09:29.046Z,68.40
2018-08-23T03:11:59.823Z,68.70
2018-08-23T03:14:30.049Z,68.90
2018-08-23T03:17:25.262Z,68.90
2018-08-23T03:20:06.095Z,68.80
2018-08-23T03:22:36.047Z,68.50
2018-08-23T03:25:07.157Z,68.50
2018-08-23T03:27:38.076Z,68.60
2018-08-23T03:30:11.495Z,68.60
2018-08-23T03:32:41.203Z,68.80
2018-08-23T03:35:10.952Z,68.60
2018-08-23T03:37:40.605Z,68.70
2018-08-23T03:40:11.067Z,69.00
2018-08-23T03:42:40.876Z,68.80
2018-08-23T03:45:41.553Z,68.90
2018-08-23T03:48:11.140Z,68.40
2018-08-23T03:50:45.994Z,68.40
2018-08-23T03:53:17.130Z,68.30
2018-08-23T03:55:57.204Z,68.30
2018-08-23T03:58:28.689Z,69.30
2018-08-23T04:01:04.001Z,68.40
2018-08-23T04:03:34.299Z,68.70
2018-08-23T04:06:18.194Z,69.40
2018-08-23T04:08:49.058Z,68.60
2018-08-23T04:11:19.062Z,68.60
2018-08-23T04:13:49.503Z,68.40
2018-08-23T04:16:25.952Z,68.50
2018-08-23T04:18:55.998Z,68.70
2018-08-23T04:21:25.904Z,68.70
2018-08-23T04:23:55.489Z,68.50
2018-08-23T04:26:26.356Z,68.30
2018-08-23T04:28:55.885Z,68.20
2018-08-23T04:31:25.520Z,69.30
2018-08-23T04:33:55.362Z,68.60
2018-08-23T04:36:31.531Z,68.70
2018-08-23T04:39:02.371Z,68.80
2018-08-23T04:41:32.882Z,68.60
2018-08-23T04:44:05.511Z,68.80
2018-08-23T04:46:35.388Z,69.00
2018-08-23T04:49:06.628Z,69.20
2018-08-23T04:51:37.409Z,68.80
2018-08-23T04:54:07.313Z,68.70
2018-08-23T04:56:36.874Z,69.50
2018-08-23T04:59:06.544Z,69.40
2018-08-23T05:01:36.108Z,69.10
2018-08-23T05:04:05.712Z,68.90
2018-08-23T05:06:35.216Z,68.70
2018-08-23T05:09:05.218Z,69.10
2018-08-23T05:11:34.893Z,68.80
2018-08-23T05:14:04.488Z,68.50
2018-08-23T05:16:34.328Z,68.70
2018-08-23T05:19:03.915Z,68.30
2018-08-23T05:21:33.512Z,68.30
2018-08-23T05:24:08.191Z,68.60
2018-08-23T05:26:37.845Z,68.30
2018-08-23T05:29:08.557Z,68.10
2018-08-23T05:31:38.289Z,68.50
2018-08-23T05:34:09.134Z,68.80
2018-08-23T05:36:38.695Z,68.40
2018-08-23T05:39:09.505Z,68.40
2018-08-23T05:41:39.038Z,68.50
2018-08-23T05:44:13.825Z,68.60
2018-08-23T05:46:49.473Z,68.30
2018-08-23T05:49:19.115Z,68.20
2018-08-23T05:51:48.849Z,68.20
2018-08-23T05:54:18.577Z,68.30
2018-08-23T05:56:48.291Z,68.40
2018-08-23T05:59:19.753Z,68.30
2018-08-23T06:01:51.570Z,68.50
2018-08-23T06:04:32.172Z,68.50
2018-08-23T06:07:01.822Z,68.30
2018-08-23T06:09:33.363Z,67.90
2018-08-23T06:12:02.985Z,67.70
2018-08-23T06:14:36.205Z,67.60
2018-08-23T06:20:39.222Z,67.80
2018-08-23T06:23:08.919Z,68.20
2018-08-23T06:25:39.637Z,68.70
2018-08-23T06:28:15.089Z,68.30
2018-08-23T06:30:45.226Z,67.50
2018-08-23T06:33:26.766Z,67.90
2018-08-23T06:35:56.398Z,67.00
2018-08-23T06:38:26.211Z,66.80
2018-08-23T06:40:58.026Z,67.20
2018-08-23T06:43:27.907Z,66.90
2018-08-23T06:45:57.586Z,65.90
2018-08-23T06:48:27.275Z,67.20
2018-08-23T06:50:58.267Z,67.10
2018-08-23T06:53:33.835Z,67.20
2018-08-23T06:56:03.361Z,67.20
2018-08-23T06:58:33.023Z,68.00
2018-08-23T07:01:04.771Z,68.30
2018-08-23T07:03:35.299Z,67.80
2018-08-23T07:06:05.162Z,65.90
2018-08-23T07:08:36.178Z,66.40
2018-08-23T07:11:13.483Z,66.40
2018-08-23T07:13:43.124Z,66.60
2018-08-23T07:16:12.743Z,65.80
2018-08-23T07:18:44.814Z,64.50
2018-08-23T07:21:15.565Z,65.40
2018-08-23T07:23:45.146Z,65.60
2018-08-23T07:26:14.803Z,64.30
2018-08-23T07:28:47.124Z,65.40
2018-08-23T07:31:16.749Z,66.10
2018-08-23T07:33:50.323Z,65.40
2018-08-23T07:36:29.669Z,64.00
2018-08-23T07:38:59.462Z,64.30
2018-08-23T07:41:31.189Z,62.70
2018-08-23T07:44:00.774Z,64.70
2018-08-23T07:46:30.421Z,63.00
2018-08-23T07:48:59.966Z,64.80
2018-08-23T07:51:29.558Z,62.90
2018-08-23T07:54:03.289Z,64.50
2018-08-23T07:59:00.253Z,64.00
2018-08-23T08:01:32.723Z,62.70
2018-08-23T08:04:03.390Z,62.20
2018-08-23T08:06:33.426Z,64.00
2018-08-23T08:09:03.017Z,62.90
2018-08-23T08:11:52.359Z,61.90
2018-08-23T08:14:26.990Z,62.50
2018-08-23T08:17:06.660Z,63.90
2018-08-23T08:19:43.550Z,63.00
2018-08-23T08:22:16.206Z,64.00
2018-08-23T08:24:46.934Z,62.40
2018-08-23T08:27:18.613Z,61.90
2018-08-23T08:29:49.775Z,63.10
2018-08-23T08:32:23.798Z,63.20
2018-08-23T08:35:01.552Z,63.00
2018-08-23T08:37:35.183Z,61.90
2018-08-23T08:40:14.024Z,62.60
2018-08-23T08:42:48.395Z,62.50
2018-08-23T08:45:19.889Z,62.50
2018-08-23T08:47:52.287Z,62.90
2018-08-23T08:50:23.736Z,62.90
2018-08-23T08:52:54.874Z,62.00
2018-08-23T08:55:26.544Z,63.70
2018-08-23T08:57:57.668Z,63.20
2018-08-23T09:00:32.464Z,61.60
2018-08-23T09:03:03.562Z,63.70
2018-08-23T09:05:34.910Z,62.30
2018-08-23T09:08:06.000Z,62.40
2018-08-23T09:10:37.481Z,62.10
2018-08-23T09:13:08.510Z,64.20
2018-08-23T09:15:39.105Z,62.00
2018-08-23T09:18:09.600Z,62.90
2018-08-23T09:20:40.752Z,62.70
2018-08-23T09:23:10.967Z,63.10
2018-08-23T09:25:41.911Z,61.60
2018-08-23T09:28:12.189Z,63.60
2018-08-23T09:30:42.570Z,62.40
2018-08-23T09:33:16.784Z,64.10
2018-08-23T09:35:46.664Z,61.20
2018-08-23T09:38:17.953Z,62.50
2018-08-23T09:40:47.564Z,61.20
2018-08-23T09:43:17.311Z,61.10
2018-08-23T09:45:46.929Z,60.90
2018-08-23T09:48:17.117Z,61.10
2018-08-23T09:50:47.700Z,60.80
2018-08-23T09:53:22.493Z,59.80
2018-08-23T09:55:52.624Z,61.10
2018-08-23T09:58:27.346Z,61.70
2018-08-23T10:01:01.899Z,62.30
2018-08-23T10:03:36.793Z,61.70
2018-08-23T10:06:11.444Z,61.40
2018-08-23T10:08:47.491Z,59.50
2018-08-23T10:11:22.188Z,59.70
2018-08-23T10:13:56.853Z,59.10
2018-08-23T10:16:31.549Z,59.70
2018-08-23T10:19:06.099Z,59.50
2018-08-23T10:21:40.769Z,60.40
2018-08-23T10:24:17.784Z,60.30
2018-08-23T10:26:47.389Z,59.90
2018-08-23T10:29:17.045Z,58.00
2018-08-23T10:31:46.620Z,60.40
2018-08-23T10:34:16.194Z,60.00
2018-08-23T10:36:45.737Z,61.00
2018-08-23T10:39:15.298Z,59.50
2018-08-23T10:41:45.055Z,57.80
2018-08-23T10:44:14.661Z,60.40
2018-08-23T10:46:49.312Z,59.90
2018-08-23T10:49:18.928Z,59.20
2018-08-23T10:51:48.816Z,57.90
2018-08-23T10:54:19.400Z,58.50
2018-08-23T10:56:49.348Z,59.20
2018-08-23T10:59:19.015Z,58.20
2018-08-23T11:01:49.040Z,60.10
2018-08-23T11:04:18.682Z,59.90
2018-08-23T11:06:53.506Z,59.00
2018-08-23T11:09:30.588Z,58.80
2018-08-23T11:12:00.217Z,59.00
2018-08-23T11:14:34.790Z,57.20
2018-08-23T11:17:09.493Z,57.20
2018-08-23T11:19:44.220Z,57.40
2018-08-23T11:22:13.784Z,57.70
2018-08-23T11:24:43.364Z,55.90
2018-08-23T11:27:12.914Z,56.80
2018-08-23T11:29:42.624Z,56.60
2018-08-23T11:32:12.213Z,54.60
2018-08-23T11:34:41.765Z,56.30
2018-08-23T11:37:11.275Z,55.20
2018-08-23T11:39:40.908Z,55.00
2018-08-23T11:42:10.492Z,57.40
2018-08-23T11:44:40.153Z,54.20
2018-08-23T11:47:09.711Z,54.70
2018-08-23T11:49:39.300Z,55.90
2018-08-23T11:52:08.880Z,55.00
2018-08-23T11:54:38.454Z,56.30
2018-08-23T11:57:08.041Z,57.90
2018-08-23T11:59:37.678Z,55.20
2018-08-23T12:02:07.659Z,56.10
2018-08-23T12:04:37.286Z,55.40
2018-08-23T12:07:06.869Z,55.30
2018-08-23T12:09:36.484Z,54.80
2018-08-23T12:12:06.157Z,54.70
2018-08-23T12:14:35.773Z,57.20
2018-08-23T12:17:05.702Z,55.90
2018-08-23T12:19:35.316Z,53.40
2018-08-23T12:22:05.034Z,54.10
2018-08-23T12:24:34.654Z,54.70
2018-08-23T12:27:04.248Z,54.60
2018-08-23T12:29:33.765Z,54.40
2018-08-23T12:32:03.362Z,54.80
2018-08-23T12:34:36.854Z,54.30
2018-08-23T12:37:11.751Z,53.50
2018-08-23T12:39:46.625Z,53.50
2018-08-23T12:42:21.204Z,53.70
2018-08-23T12:44:54.530Z,54.00
2018-08-23T12:47:24.127Z,55.00
2018-08-23T12:49:57.873Z,56.00
2018-08-23T12:52:27.474Z,56.10
2018-08-23T12:54:57.016Z,57.70
2018-08-23T12:57:26.625Z,56.10
2018-08-23T12:59:56.218Z,57.00
2018-08-23T13:02:26.930Z,56.70
2018-08-23T13:04:56.425Z,57.90
2018-08-23T13:07:26.114Z,56.70
2018-08-23T13:09:55.760Z,56.30
2018-08-23T13:12:25.335Z,71.60
2018-08-23T13:14:55.054Z,68.90
2018-08-23T13:17:24.977Z,67.70
2018-08-23T13:19:54.612Z,65.80
2018-08-23T13:22:29.377Z,64.40
2018-08-23T13:25:07.809Z,64.30
2018-08-23T13:27:42.459Z,66.20
2018-08-23T13:30:16.059Z,68.20
2018-08-23T13:32:45.648Z,68.00
2018-08-23T13:35:15.254Z,66.80
2018-08-23T13:37:46.196Z,63.40
2018-08-23T13:40:23.392Z,71.00
2018-08-23T13:42:53.792Z,66.90
2018-08-23T13:45:25.482Z,59.70
2018-08-23T13:47:56.333Z,63.70
2018-08-23T13:50:26.786Z,61.30
2018-08-23T13:52:56.365Z,59.30
2018-08-23T13:55:25.889Z,59.90
2018-08-23T13:57:55.556Z,59.10
2018-08-23T14:00:25.273Z,60.70
2018-08-23T14:02:55.029Z,62.70
2018-08-23T14:05:24.771Z,67.70
2018-08-23T14:10:23.819Z,68.20
2018-08-23T14:12:53.486Z,67.10
2018-08-23T14:15:28.249Z,68.10
2018-08-23T14:17:57.865Z,67.50
2018-08-23T14:20:27.440Z,66.60
2018-08-23T14:22:57.005Z,67.40
2018-08-23T14:25:26.586Z,67.90
2018-08-23T14:27:56.248Z,68.50
2018-08-23T14:30:25.820Z,68.70
2018-08-23T14:32:55.506Z,67.60
2018-08-23T14:35:25.098Z,66.60
2018-08-23T14:40:24.937Z,63.90
2018-08-23T14:42:54.538Z,63.30
2018-08-23T14:45:30.153Z,63.20
2018-08-23T14:48:04.690Z,63.30
2018-08-23T14:50:35.256Z,62.00
2018-08-23T14:53:05.878Z,62.70
2018-08-23T14:55:40.562Z,62.70
2018-08-23T14:58:11.104Z,62.20
2018-08-23T15:00:40.672Z,61.90
2018-08-23T15:03:10.242Z,61.50
2018-08-23T15:05:39.855Z,60.40
2018-08-23T15:08:09.449Z,60.00
2018-08-23T15:10:38.951Z,59.70
2018-08-23T15:13:08.518Z,60.00
2018-08-23T15:15:43.228Z,59.80
2018-08-23T15:18:12.772Z,59.30
2018-08-23T15:20:42.326Z,58.30
2018-08-23T15:23:11.924Z,59.60
2018-08-23T15:25:41.515Z,59.40
2018-08-23T15:28:11.196Z,58.80
2018-08-23T15:30:40.780Z,57.10
2018-08-23T15:33:10.396Z,59.70
2018-08-23T15:35:39.967Z,57.70
2018-08-23T15:38:09.551Z,58.90
2018-08-23T15:40:39.215Z,58.00
2018-08-23T15:43:08.748Z,57.40
2018-08-23T15:45:38.483Z,58.30
2018-08-23T15:48:08.138Z,61.40
2018-08-23T15:50:37.684Z,58.30
2018-08-23T15:53:07.336Z,58.60
2018-08-23T15:55:37.139Z,56.00
2018-08-23T15:58:07.226Z,56.30
2018-08-23T16:00:39.476Z,56.20
2018-08-23T16:03:09.409Z,57.10
2018-08-23T16:05:39.479Z,52.60
2018-08-23T16:08:09.091Z,52.30
2018-08-23T16:10:38.638Z,53.10
2018-08-23T16:13:08.263Z,55.70
2018-08-23T16:15:37.935Z,52.50
2018-08-23T16:18:12.589Z,56.10
2018-08-23T16:20:59.754Z,53.10
2018-08-23T16:23:29.552Z,55.50
2018-08-23T16:25:59.179Z,53.60
2018-08-23T16:28:28.820Z,54.70
2018-08-23T16:30:58.439Z,54.90
2018-08-23T16:33:27.967Z,55.10
2018-08-23T16:35:57.536Z,56.10
2018-08-23T16:38:27.122Z,55.40
2018-08-23T16:40:56.660Z,56.00
2018-08-23T16:43:26.492Z,54.80
2018-08-23T16:45:56.056Z,54.10
2018-08-23T16:48:25.632Z,53.90
2018-08-23T16:50:55.358Z,54.70
2018-08-23T16:53:25.003Z,57.70
2018-08-23T16:55:54.654Z,58.10
2018-08-23T16:58:24.312Z,62.20
2018-08-23T17:00:53.857Z,63.10
2018-08-23T17:03:23.489Z,62.60
2018-08-23T17:05:53.071Z,63.00
2018-08-23T17:08:22.811Z,60.60
2018-08-23T17:10:52.361Z,58.70
2018-08-23T17:13:27.031Z,61.10
2018-08-23T17:16:01.811Z,62.90
2018-08-23T17:18:31.579Z,59.00
2018-08-23T17:21:01.179Z,58.30
2018-08-23T17:23:30.816Z,57.70
2018-08-23T17:26:00.488Z,56.40
2018-08-23T17:28:30.129Z,55.60
2018-08-23T17:30:59.832Z,56.50
2018-08-23T17:33:29.373Z,56.90
2018-08-23T17:35:59.067Z,57.60
2018-08-23T17:38:30.278Z,58.30
2018-08-23T17:40:59.916Z,58.40
2018-08-23T17:43:29.693Z,60.60
2018-08-23T17:45:59.289Z,61.40
2018-08-23T17:48:28.949Z,64.30
2018-08-23T17:50:58.609Z,67.10
2018-08-23T17:53:28.147Z,67.90
2018-08-23T17:55:57.781Z,68.30
2018-08-23T17:58:27.346Z,69.00
2018-08-23T18:00:56.974Z,69.70
2018-08-23T18:03:26.633Z,70.20
2018-08-23T18:05:56.264Z,71.10
2018-08-23T18:08:25.928Z,71.20
2018-08-23T18:10:55.557Z,71.40
2018-08-23T18:13:25.235Z,72.20
2018-08-23T18:16:00.874Z,72.70
2018-08-23T18:18:30.588Z,73.30
2018-08-23T18:21:00.284Z,73.20
2018-08-23T18:23:30.044Z,73.90
2018-08-23T18:26:00.378Z,73.80
2018-08-23T18:28:30.875Z,74.00
2018-08-23T18:31:01.560Z,73.10
2018-08-23T18:33:32.020Z,72.80
2018-08-23T18:36:02.640Z,72.60
2018-08-23T18:38:39.914Z,72.80
2018-08-23T18:41:11.840Z,72.60
2018-08-23T18:43:46.390Z,72.30
2018-08-23T18:46:16.536Z,72.50
2018-08-23T18:48:46.378Z,72.60
2018-08-23T18:51:16.821Z,72.90
2018-08-23T18:53:47.029Z,72.30
2018-08-23T18:56:17.423Z,72.50
2018-08-23T18:58:47.794Z,72.60
2018-08-23T19:01:38.021Z,72.40
2018-08-23T19:04:22.741Z,72.60
2018-08-23T19:06:53.187Z,72.20
2018-08-23T19:09:23.525Z,71.50
2018-08-23T19:11:53.901Z,70.70
2018-08-23T19:14:24.250Z,70.80
2018-08-23T19:16:59.444Z,70.90
2018-08-23T19:19:29.801Z,70.60
2018-08-23T19:22:00.095Z,69.70
2018-08-23T19:24:30.509Z,69.80
2018-08-23T19:27:01.006Z,70.10
2018-08-23T19:29:31.500Z,70.60
2018-08-23T19:32:01.962Z,70.60
2018-08-23T19:34:32.295Z,71.10
2018-08-23T19:37:03.483Z,70.70
2018-08-23T19:39:33.883Z,70.10
2018-08-23T19:42:04.468Z,70.30
2018-08-23T19:44:38.091Z,70.50
2018-08-23T19:47:13.079Z,70.30
2018-08-23T19:49:48.161Z,70.40
2018-08-23T19:52:18.697Z,70.40
2018-08-23T19:54:49.088Z,70.70
2018-08-23T19:57:19.526Z,70.80
2018-08-23T19:59:49.926Z,71.10
2018-08-23T20:02:20.305Z,71.20
2018-08-23T20:04:50.640Z,71.00
2018-08-23T20:07:21.033Z,70.90
2018-08-23T20:09:51.331Z,70.30
2018-08-23T20:12:21.764Z,70.10
2018-08-23T20:14:52.069Z,69.90
2018-08-23T20:17:22.427Z,70.10
2018-08-23T20:19:52.803Z,69.30
2018-08-23T20:22:23.173Z,69.40
2018-08-23T20:24:53.502Z,70.10
2018-08-23T20:27:23.660Z,69.30
2018-08-23T20:29:53.922Z,68.80
2018-08-23T20:32:24.016Z,68.80
2018-08-23T20:34:54.264Z,68.40
2018-08-23T20:37:24.579Z,68.40
2018-08-23T20:39:54.835Z,68.40
2018-08-23T20:42:25.058Z,68.70
2018-08-23T20:44:55.191Z,68.30
2018-08-23T20:47:25.411Z,68.40
2018-08-23T20:49:55.508Z,68.00
2018-08-23T20:52:25.685Z,67.90
2018-08-23T20:54:55.490Z,68.00
2018-08-23T20:57:25.191Z,68.20
2018-08-23T20:59:54.853Z,68.00
2018-08-23T21:02:24.377Z,68.20
2018-08-23T21:04:53.999Z,68.50
2018-08-23T21:07:23.648Z,70.40
2018-08-23T21:09:53.353Z,71.40
2018-08-23T21:12:22.876Z,71.10
2018-08-23T21:14:52.442Z,71.20
2018-08-23T21:17:22.054Z,71.70
2018-08-23T21:19:51.653Z,72.00
2018-08-23T21:22:21.178Z,72.30
2018-08-23T21:24:50.675Z,72.40
2018-08-23T21:27:20.230Z,72.90
2018-08-23T21:29:49.865Z,73.20
2018-08-23T21:32:19.442Z,73.10
2018-08-23T21:34:48.948Z,73.50
2018-08-23T21:37:18.533Z,73.80
2018-08-23T21:39:48.178Z,73.80
2018-08-23T21:42:17.755Z,74.00
2018-08-23T21:44:47.428Z,73.80
2018-08-23T21:47:17.194Z,73.50
2018-08-23T21:52:06.917Z,72.80
2018-08-23T21:54:36.470Z,74.10
2018-08-23T21:57:06.006Z,73.70
2018-08-23T21:59:35.604Z,73.40
2018-08-23T22:02:10.313Z,73.90
2018-08-23T22:04:45.067Z,73.10
2018-08-23T22:07:14.753Z,72.40
2018-08-23T22:09:48.686Z,71.80
2018-08-23T22:12:20.239Z,72.00
2018-08-23T22:14:50.467Z,71.40
2018-08-23T22:17:20.797Z,70.70
2018-08-23T22:19:51.130Z,71.40
2018-08-23T22:22:20.759Z,71.70
2018-08-23T22:24:50.365Z,71.90
2018-08-23T22:27:19.991Z,71.80
2018-08-23T22:29:49.603Z,72.10
2018-08-23T22:32:19.276Z,72.10
2018-08-23T22:34:48.873Z,72.10
2018-08-23T22:37:18.514Z,71.80
2018-08-23T22:39:48.131Z,72.10
2018-08-23T22:42:17.695Z,72.00
2018-08-23T22:44:47.219Z,72.10
2018-08-23T22:47:16.856Z,71.50
2018-08-23T22:49:46.385Z,72.40
2018-08-23T22:52:15.922Z,72.30
2018-08-23T22:54:45.557Z,72.20
2018-08-23T22:57:15.072Z,72.00
2018-08-23T22:59:44.957Z,71.70
2018-08-23T23:02:22.423Z,72.00
2018-08-23T23:04:51.975Z,72.20
2018-08-23T23:07:21.528Z,72.60
2018-08-23T23:09:51.044Z,72.10
2018-08-23T23:12:20.706Z,72.70
2018-08-23T23:14:50.330Z,72.50
2018-08-23T23:17:19.845Z,72.90
2018-08-23T23:19:49.419Z,73.00
2018-08-23T23:22:19.039Z,72.50
2018-08-23T23:24:53.603Z,72.30
2018-08-23T23:27:23.205Z,72.30
2018-08-23T23:29:52.801Z,73.10
2018-08-23T23:32:22.415Z,73.30
2018-08-23T23:34:52.067Z,72.40
2018-08-23T23:37:21.612Z,72.90
2018-08-23T23:39:51.129Z,73.30
2018-08-23T23:42:20.699Z,73.30
2018-08-23T23:44:50.302Z,73.40
2018-08-23T23:47:19.924Z,73.30
2018-08-23T23:49:49.576Z,73.50
2018-08-23T23:52:19.130Z,73.00
2018-08-23T23:54:48.712Z,72.90
2018-08-23T23:57:18.327Z,72.80
2018-08-23T23:59:47.900Z,72.90
